Time;durP1;ratioP1;P1;durP2;ratioP2;P2;SDS_P1;SDS_P2;PMS_P1;PMS_P2;Temp;Humidity;BMP_temperature;BMP_pressure;BME280_temperature;BME280_humidity;BME280_pressure;Samples;Min_cycle;Max_cycle;Signal;HPM_P1;HPM_P2
2023/08/14 00:00:07;;;;;;;5.50;3.87;;;;;23.60;100528.00;;;;2074665;28;20704;-64
2023/08/14 00:01:08;;;;;;;4.50;4.07;;;;;23.60;100527.00;;;;2076152;28;20248;-62
2023/08/14 00:02:08;;;;;;;5.50;4.17;;;;;23.60;100529.00;;;;2063025;28;20460;-62
2023/08/14 00:03:08;;;;;;;6.50;4.33;;;;;23.60;100526.00;;;;2067040;28;20225;-61
2023/08/14 00:04:09;;;;;;;5.40;4.23;;;;;23.60;100540.00;;;;2075506;28;20233;-61
2023/08/14 00:05:09;;;;;;;6.63;4.00;;;;;23.60;100524.00;;;;2072932;28;20218;-61
2023/08/14 00:06:10;;;;;;;5.10;3.97;;;;;23.60;100527.00;;;;2075489;28;20908;-60
2023/08/14 00:07:10;;;;;;;7.45;4.18;;;;;23.60;100522.00;;;;2063616;28;20217;-61
2023/08/14 00:08:11;;;;;;;5.37;4.00;;;;;23.60;100535.00;;;;2069422;28;20297;-61
2023/08/14 00:09:11;;;;;;;8.20;4.53;;;;;23.60;100516.00;;;;2076060;28;20218;-60
2023/08/14 00:10:11;;;;;;;7.20;4.30;;;;;23.60;100523.00;;;;2072692;28;20225;-60
2023/08/14 00:11:12;;;;;;;4.23;3.33;;;;;23.60;100522.00;;;;2075530;28;20268;-60
2023/08/14 00:12:12;;;;;;;4.70;3.60;;;;;23.60;100513.00;;;;2065723;28;20221;-60
2023/08/14 00:13:12;;;;;;;5.40;4.03;;;;;23.60;100517.00;;;;2072319;28;20217;-62
2023/08/14 00:14:13;;;;;;;4.73;3.70;;;;;23.60;100524.00;;;;2075280;28;20301;-62
2023/08/14 00:15:14;;;;;;;5.90;4.63;;;;;23.60;100519.00;;;;2074382;28;20980;-61
2023/08/14 00:16:14;;;;;;;5.23;4.07;;;;;23.60;100521.00;;;;2075111;28;20222;-60
2023/08/14 00:17:14;;;;;;;10.77;3.90;;;;;23.60;100524.00;;;;2071376;28;20224;-60
2023/08/14 00:18:15;;;;;;;5.30;3.40;;;;;23.60;100518.00;;;;2078730;28;20217;-61
2023/08/14 00:19:15;;;;;;;5.33;3.90;;;;;23.60;100522.00;;;;2074613;28;20213;-62
2023/08/14 00:20:15;;;;;;;6.30;4.20;;;;;23.60;100526.00;;;;2078292;28;20275;-62
2023/08/14 00:21:16;;;;;;;5.13;3.93;;;;;23.60;100518.00;;;;2076928;28;20225;-60
2023/08/14 00:22:16;;;;;;;5.63;3.80;;;;;23.60;100531.00;;;;2067029;28;20260;-60
2023/08/14 00:23:16;;;;;;;4.40;3.40;;;;;23.60;100536.00;;;;2070141;28;20221;-60
2023/08/14 00:24:17;;;;;;;5.13;3.70;;;;;23.60;100516.00;;;;2068606;28;20218;-61
2023/08/14 00:25:17;;;;;;;4.13;3.70;;;;;23.60;100524.00;;;;2075348;28;20317;-62
2023/08/14 00:26:17;;;;;;;5.60;3.50;;;;;23.60;100516.00;;;;2074450;28;21012;-64
2023/08/14 00:27:18;;;;;;;4.83;3.10;;;;;23.60;100522.00;;;;2068481;28;20581;-61
2023/08/14 00:28:18;;;;;;;3.47;3.13;;;;;23.60;100527.00;;;;2073684;28;21044;-61
2023/08/14 00:29:18;;;;;;;5.80;4.10;;;;;23.60;100522.00;;;;2074245;28;20962;-60
2023/08/14 00:30:19;;;;;;;5.33;3.30;;;;;23.60;100505.00;;;;2075685;28;20800;-61
2023/08/14 00:31:19;;;;;;;5.97;4.27;;;;;23.60;100527.00;;;;2051675;28;20675;-62
2023/08/14 00:32:19;;;;;;;6.60;3.97;;;;;23.60;100522.00;;;;2077561;28;20686;-63
2023/08/14 00:33:20;;;;;;;4.53;3.20;;;;;23.60;100526.00;;;;2072610;28;20602;-61
2023/08/14 00:34:20;;;;;;;5.13;3.40;;;;;23.60;100524.00;;;;2076041;28;20217;-60
2023/08/14 00:35:20;;;;;;;6.37;3.67;;;;;23.60;100524.00;;;;2075623;28;20613;-60
2023/08/14 00:36:21;;;;;;;4.70;3.27;;;;;23.60;100530.00;;;;2063607;28;20229;-61
2023/08/14 00:37:21;;;;;;;5.03;3.67;;;;;23.60;100526.00;;;;2070722;28;20219;-62
2023/08/14 00:38:22;;;;;;;5.00;3.83;;;;;23.60;100516.00;;;;2070966;28;20210;-60
2023/08/14 00:39:22;;;;;;;5.37;3.43;;;;;23.60;100514.00;;;;2075230;28;20202;-61
2023/08/14 00:40:23;;;;;;;4.73;3.20;;;;;23.60;100518.00;;;;2073086;28;20256;-61
2023/08/14 00:41:23;;;;;;;3.10;2.77;;;;;23.60;100515.00;;;;2062430;28;20202;-60
2023/08/14 00:42:23;;;;;;;3.30;2.70;;;;;23.60;100527.00;;;;2077042;28;20896;-61
2023/08/14 00:43:24;;;;;;;5.20;3.67;;;;;23.60;100528.00;;;;2075703;28;20286;-62
2023/08/14 00:44:24;;;;;;;4.60;3.30;;;;;23.60;100532.00;;;;2073483;28;20210;-61
2023/08/14 00:45:24;;;;;;;6.03;2.90;;;;;23.60;100529.00;;;;2075328;28;20293;-63
2023/08/14 00:46:25;;;;;;;4.30;2.93;;;;;23.60;100529.00;;;;2068202;28;20217;-61
2023/08/14 00:47:25;;;;;;;5.13;3.10;;;;;23.60;100525.00;;;;2074109;28;20207;-61
2023/08/14 00:48:25;;;;;;;4.07;3.17;;;;;23.60;100518.00;;;;2077225;28;20305;-60
2023/08/14 00:49:26;;;;;;;4.10;3.10;;;;;23.60;100522.00;;;;2073271;28;20214;-60
2023/08/14 00:50:26;;;;;;;4.77;3.10;;;;;23.60;100516.00;;;;2065292;28;20603;-61
2023/08/14 00:51:26;;;;;;;4.70;3.17;;;;;23.60;100516.00;;;;2045593;28;20592;-60
2023/08/14 00:52:27;;;;;;;4.83;3.27;;;;;23.60;100515.00;;;;2065552;28;20217;-61
2023/08/14 00:53:28;;;;;;;4.60;3.30;;;;;23.60;100516.00;;;;2063355;28;20215;-61
2023/08/14 00:54:28;;;;;;;4.15;3.10;;;;;23.60;100523.00;;;;2057291;28;20330;-61
2023/08/14 00:55:28;;;;;;;4.33;3.10;;;;;23.60;100513.00;;;;2054321;28;20214;-61
2023/08/14 00:56:29;;;;;;;4.80;2.80;;;;;23.60;100495.00;;;;2045466;28;20301;-61
2023/08/14 00:57:30;;;;;;;4.55;3.45;;;;;23.60;100520.00;;;;2066336;28;20222;-60
2023/08/14 00:58:30;;;;;;;3.10;2.60;;;;;23.60;100516.00;;;;2068504;28;20297;-60
2023/08/14 00:59:32;;;;;;;4.50;2.53;;;;;23.60;100518.00;;;;2075799;28;20220;-61
2023/08/14 01:00:34;;;;;;;3.70;2.78;;;;;23.60;100522.00;;;;2075227;28;20202;-60
2023/08/14 01:01:35;;;;;;;4.13;2.65;;;;;23.60;100519.00;;;;2063983;28;20591;-61
2023/08/14 01:02:35;;;;;;;3.13;2.83;;;;;23.60;100517.00;;;;2068968;28;20220;-61
2023/08/14 01:03:35;;;;;;;3.30;2.77;;;;;23.50;100515.00;;;;2065688;28;20218;-62
2023/08/14 01:04:36;;;;;;;4.87;2.70;;;;;23.60;100517.00;;;;2060728;28;20318;-62
2023/08/14 01:05:36;;;;;;;4.90;2.50;;;;;23.60;100515.00;;;;2071192;28;20230;-62
2023/08/14 01:06:36;;;;;;;3.20;2.70;;;;;23.60;100523.00;;;;2057192;28;20305;-61
2023/08/14 01:07:37;;;;;;;2.80;2.50;;;;;23.60;100518.00;;;;2048404;28;20226;-61
2023/08/14 01:08:37;;;;;;;3.33;2.60;;;;;23.60;100514.00;;;;2066540;28;20230;-61
2023/08/14 01:09:37;;;;;;;3.90;2.70;;;;;23.60;100512.00;;;;2064193;28;20236;-61
2023/08/14 01:10:48;;;;;;;3.70;2.80;;;;;23.60;100505.00;;;;2067747;28;20214;-63
2023/08/14 01:12:18;;;;;;;3.95;2.72;;;;;23.60;100514.00;;;;2064972;28;20229;-63
2023/08/14 01:13:56;;;;;;;3.60;2.60;;;;;23.60;100508.00;;;;2062753;28;20222;-62
2023/08/14 01:15:01;;;;;;;4.90;2.42;;;;;23.60;100511.00;;;;2072822;28;20301;-61
2023/08/14 01:16:05;;;;;;;5.10;3.05;;;;;23.60;100506.00;;;;2065498;28;20218;-61
2023/08/14 01:17:08;;;;;;;4.55;3.17;;;;;23.60;100505.00;;;;2044915;28;20223;-61
2023/08/14 01:18:09;;;;;;;5.95;2.47;;;;;23.70;100511.00;;;;2067128;28;20222;-58
2023/08/14 01:19:26;;;;;;;8.60;2.87;;;;;23.60;100510.00;;;;2066725;28;20218;-61
2023/08/14 01:20:27;;;;;;;4.32;2.50;;;;;23.60;100513.00;;;;2071934;28;20562;-61
2023/08/14 01:21:42;;;;;;;5.05;2.80;;;;;23.60;100511.00;;;;2060905;28;20219;-61
2023/08/14 01:23:03;;;;;;;8.82;2.80;;;;;23.60;100486.00;;;;2066207;28;20757;-59
2023/08/14 01:24:22;;;;;;;6.20;2.67;;;;;23.60;100512.00;;;;2072814;28;20216;-60
2023/08/14 01:25:37;;;;;;;4.53;2.70;;;;;23.50;100504.00;;;;2073664;28;20217;-61
2023/08/14 01:26:37;;;;;;;4.35;2.50;;;;;23.60;100502.00;;;;2062321;28;20217;-59
2023/08/14 01:27:37;;;;;;;4.57;2.70;;;;;23.60;100492.00;;;;2066979;28;20238;-61
2023/08/14 01:28:38;;;;;;;3.73;2.63;;;;;23.60;100477.00;;;;2060773;28;20222;-61
2023/08/14 01:29:38;;;;;;;5.93;2.53;;;;;23.50;100497.00;;;;2050701;28;20231;-61
2023/08/14 01:30:39;;;;;;;3.10;2.40;;;;;23.60;100503.00;;;;2068475;28;20210;-60
2023/08/14 01:31:39;;;;;;;5.20;2.70;;;;;23.60;100503.00;;;;2064858;28;20768;-58
2023/08/14 01:32:40;;;;;;;3.47;2.30;;;;;23.60;100503.00;;;;2072996;28;20325;-59
2023/08/14 01:33:40;;;;;;;4.47;2.80;;;;;23.50;100495.00;;;;2071004;28;20221;-60
2023/08/14 01:34:40;;;;;;;4.63;2.57;;;;;23.60;100491.00;;;;2075714;28;20310;-61
2023/08/14 01:35:46;;;;;;;4.37;2.63;;;;;23.50;100492.00;;;;2072967;28;20285;-61
2023/08/14 01:37:04;;;;;;;5.47;2.58;;;;;23.60;100504.00;;;;2061932;28;20234;-61
2023/08/14 01:38:20;;;;;;;5.20;2.65;;;;;23.60;100500.00;;;;2071020;28;20245;-61
2023/08/14 01:39:22;;;;;;;3.22;2.38;;;;;23.50;100495.00;;;;2065994;28;20246;-61
2023/08/14 01:40:39;;;;;;;7.35;2.95;;;;;23.50;100494.00;;;;2052851;28;20245;-60
2023/08/14 01:42:05;;;;;;;4.88;2.45;;;;;23.50;100495.00;;;;2052779;28;20272;-61
2023/08/14 01:43:10;;;;;;;4.25;2.10;;;;;23.50;100492.00;;;;2073641;28;20267;-61
2023/08/14 01:44:11;;;;;;;3.40;2.08;;;;;23.50;100478.00;;;;2065860;28;20221;-60
2023/08/14 01:45:17;;;;;;;4.60;2.10;;;;;23.50;100425.00;;;;2067389;28;20585;-61
2023/08/14 01:46:17;;;;;;;5.57;3.05;;;;;23.50;100487.00;;;;2066073;28;20709;-65
2023/08/14 01:47:18;;;;;;;6.20;2.37;;;;;23.50;100489.00;;;;2052283;28;20223;-61
2023/08/14 01:48:18;;;;;;;2.50;2.10;;;;;23.50;100484.00;;;;2066904;28;20210;-59
2023/08/14 01:49:18;;;;;;;4.50;2.20;;;;;23.50;100482.00;;;;2068933;28;20222;-61
2023/08/14 01:50:19;;;;;;;3.03;2.33;;;;;23.50;100483.00;;;;2068444;28;20238;-59
2023/08/14 01:51:19;;;;;;;4.20;2.07;;;;;23.50;100483.00;;;;2049637;28;20944;-59
2023/08/14 01:52:20;;;;;;;3.00;2.10;;;;;23.50;100488.00;;;;2052522;28;20227;-60
2023/08/14 01:53:20;;;;;;;4.00;2.70;;;;;23.50;100383.00;;;;2044193;28;20303;-57
2023/08/14 01:54:20;;;;;;;5.30;2.47;;;;;23.50;100487.00;;;;2045762;28;20803;-59
2023/08/14 01:55:22;;;;;;;3.27;2.00;;;;;23.50;100486.00;;;;2056888;28;20682;-58
2023/08/14 01:56:23;;;;;;;4.03;2.33;;;;;23.50;100484.00;;;;2062945;28;20210;-61
2023/08/14 01:57:23;;;;;;;3.23;2.33;;;;;23.50;100489.00;;;;2076228;28;20713;-59
2023/08/14 01:58:23;;;;;;;4.40;2.50;;;;;23.50;100487.00;;;;2075248;28;20578;-60
2023/08/14 01:59:34;;;;;;;3.80;2.47;;;;;23.50;100478.00;;;;2076205;28;20709;-61
2023/08/14 02:00:36;;;;;;;4.78;2.10;;;;;23.50;100482.00;;;;2066825;28;20260;-60
2023/08/14 02:01:36;;;;;;;2.40;1.90;;;;;23.50;100470.00;;;;2054752;28;20225;-61
2023/08/14 02:02:36;;;;;;;2.40;2.00;;;;;23.50;100470.00;;;;2072366;28;20233;-61
2023/08/14 02:03:37;;;;;;;2.70;1.97;;;;;23.50;100471.00;;;;2073683;28;20221;-58
2023/08/14 02:04:37;;;;;;;3.90;2.37;;;;;23.50;100457.00;;;;2069850;28;20201;-58
2023/08/14 02:05:38;;;;;;;4.90;2.37;;;;;23.50;100464.00;;;;2073012;28;20213;-61
2023/08/14 02:06:38;;;;;;;3.30;2.10;;;;;23.50;100467.00;;;;2066048;28;20796;-60
2023/08/14 02:07:38;;;;;;;3.80;2.10;;;;;23.50;100470.00;;;;2075345;28;20684;-59
2023/08/14 02:08:39;;;;;;;2.80;2.10;;;;;23.50;100466.00;;;;2072987;28;20323;-61
2023/08/14 02:09:39;;;;;;;4.07;2.27;;;;;23.50;100472.00;;;;2074181;28;20241;-61
2023/08/14 02:10:39;;;;;;;2.30;2.03;;;;;23.50;100461.00;;;;2076855;28;20224;-58
2023/08/14 02:11:39;;;;;;;2.60;2.10;;;;;23.50;100465.00;;;;2065708;28;20347;-60
2023/08/14 02:12:40;;;;;;;3.00;1.90;;;;;23.50;100464.00;;;;2075909;28;20232;-60
2023/08/14 02:13:40;;;;;;;3.80;2.67;;;;;23.50;100466.00;;;;2074154;28;20222;-58
2023/08/14 02:14:40;;;;;;;3.93;2.23;;;;;23.50;100463.00;;;;2072726;28;20309;-61
2023/08/14 02:15:44;;;;;;;4.10;2.37;;;;;23.50;100453.00;;;;2072240;28;20218;-61
2023/08/14 02:16:44;;;;;;;4.05;1.70;;;;;23.50;100453.00;;;;2058978;28;20241;-60
2023/08/14 02:17:45;;;;;;;2.90;2.40;;;;;23.50;100451.00;;;;2072526;28;20213;-61
2023/08/14 02:18:45;;;;;;;3.17;1.93;;;;;23.50;100448.00;;;;2072336;28;20214;-61
2023/08/14 02:19:46;;;;;;;3.00;1.80;;;;;23.50;100450.00;;;;2070897;28;20240;-61
2023/08/14 02:20:47;;;;;;;5.60;1.93;;;;;23.50;100447.00;;;;2076758;28;20213;-59
2023/08/14 02:21:48;;;;;;;3.00;1.95;;;;;23.50;100449.00;;;;2052401;28;20226;-61
2023/08/14 02:22:49;;;;;;;3.95;2.53;;;;;23.50;100441.00;;;;2058574;28;20310;-60
2023/08/14 02:23:50;;;;;;;2.87;2.00;;;;;23.50;100441.00;;;;2075621;28;20685;-59
2023/08/14 02:24:50;;;;;;;3.45;2.33;;;;;23.50;100441.00;;;;2076319;28;20308;-57
2023/08/14 02:25:53;;;;;;;2.60;1.97;;;;;23.50;100443.00;;;;2072495;28;20220;-58
2023/08/14 02:26:54;;;;;;;3.05;2.05;;;;;23.50;100439.00;;;;2058028;28;20590;-60
2023/08/14 02:27:54;;;;;;;4.67;1.80;;;;;23.50;100444.00;;;;2069429;28;20214;-60
2023/08/14 02:28:54;;;;;;;1.93;1.73;;;;;23.50;100444.00;;;;2072582;28;20304;-58
2023/08/14 02:29:55;;;;;;;3.50;2.17;;;;;23.50;100440.00;;;;2077065;28;20221;-61
2023/08/14 02:30:55;;;;;;;2.20;2.00;;;;;23.50;100441.00;;;;2075243;28;20720;-60
2023/08/14 02:31:55;;;;;;;3.50;2.00;;;;;23.50;100440.00;;;;2071535;28;20295;-61
2023/08/14 02:32:56;;;;;;;5.73;2.27;;;;;23.50;100439.00;;;;2082118;28;20287;-60
2023/08/14 02:33:58;;;;;;;3.00;2.10;;;;;23.50;100442.00;;;;2077240;28;20222;-59
2023/08/14 02:34:58;;;;;;;3.13;1.92;;;;;23.50;100436.00;;;;2075431;28;20221;-58
2023/08/14 02:35:59;;;;;;;2.73;1.70;;;;;23.50;100432.00;;;;2069852;28;20301;-57
2023/08/14 02:36:59;;;;;;;2.93;2.03;;;;;23.50;100431.00;;;;2065429;28;20271;-60
2023/08/14 02:38:06;;;;;;;2.70;1.67;;;;;23.50;100432.00;;;;2076101;28;20233;-60
2023/08/14 02:39:06;;;;;;;2.17;1.90;;;;;23.50;100444.00;;;;2073401;28;20282;-61
2023/08/14 02:40:07;;;;;;;2.53;1.70;;;;;23.50;100435.00;;;;2073793;28;20299;-58
2023/08/14 02:41:07;;;;;;;3.90;2.13;;;;;23.50;100435.00;;;;2071177;28;20310;-60
2023/08/14 02:42:08;;;;;;;2.00;1.67;;;;;23.50;100433.00;;;;2065090;28;20218;-60
2023/08/14 02:43:08;;;;;;;2.70;1.93;;;;;23.50;100435.00;;;;2074351;28;20221;-61
2023/08/14 02:44:08;;;;;;;3.60;1.70;;;;;23.50;100428.00;;;;2076567;28;20217;-61
2023/08/14 02:45:09;;;;;;;2.40;1.80;;;;;23.50;100432.00;;;;2075632;28;20321;-61
2023/08/14 02:46:09;;;;;;;4.30;2.07;;;;;23.50;100427.00;;;;2070293;28;20249;-59
2023/08/14 02:47:10;;;;;;;2.50;2.13;;;;;23.50;100433.00;;;;2063773;28;21346;-59
2023/08/14 02:48:10;;;;;;;7.47;2.30;;;;;23.50;100427.00;;;;2066503;28;20309;-61
2023/08/14 02:49:10;;;;;;;2.33;1.80;;;;;23.50;100430.00;;;;2064306;28;20701;-60
2023/08/14 02:50:11;;;;;;;3.20;2.00;;;;;23.50;100437.00;;;;2072594;28;20360;-60
2023/08/14 02:51:11;;;;;;;2.07;1.53;;;;;23.50;100434.00;;;;2075421;28;20305;-60
2023/08/14 02:52:11;;;;;;;2.80;1.70;;;;;23.50;100424.00;;;;2065036;28;20221;-59
2023/08/14 02:53:12;;;;;;;2.13;1.70;;;;;23.50;100433.00;;;;2070186;28;20276;-58
2023/08/14 02:54:12;;;;;;;2.70;1.70;;;;;23.50;100438.00;;;;2069790;28;20986;-60
2023/08/14 02:55:12;;;;;;;3.27;1.90;;;;;23.50;100427.00;;;;2073687;28;21123;-60
2023/08/14 02:56:13;;;;;;;2.53;1.80;;;;;23.50;100430.00;;;;2068682;28;20252;-61
2023/08/14 02:57:13;;;;;;;3.10;1.67;;;;;23.50;100434.00;;;;2052855;28;20222;-61
2023/08/14 02:58:13;;;;;;;2.10;1.70;;;;;23.50;100430.00;;;;2059087;28;20218;-61
2023/08/14 02:59:14;;;;;;;2.53;2.10;;;;;23.50;100433.00;;;;2073131;28;20297;-61
2023/08/14 03:00:14;;;;;;;2.50;1.80;;;;;23.40;100423.00;;;;2060478;28;20218;-60
2023/08/14 03:01:15;;;;;;;3.97;2.00;;;;;23.50;100421.00;;;;2056828;28;20227;-60
2023/08/14 03:02:15;;;;;;;6.27;2.27;;;;;23.50;100420.00;;;;2063036;28;20279;-60
2023/08/14 03:03:15;;;;;;;3.57;2.03;;;;;23.50;100415.00;;;;2068510;28;20218;-60
2023/08/14 03:04:17;;;;;;;3.20;1.87;;;;;23.50;100416.00;;;;2074555;28;20304;-58
2023/08/14 03:05:19;;;;;;;3.95;1.77;;;;;23.50;100421.00;;;;2073647;28;20218;-61
2023/08/14 03:06:19;;;;;;;3.33;2.05;;;;;23.50;100422.00;;;;2067602;28;20257;-60
2023/08/14 03:07:20;;;;;;;5.13;2.23;;;;;23.50;100416.00;;;;2074650;28;20319;-61
2023/08/14 03:08:20;;;;;;;2.77;1.80;;;;;23.50;100424.00;;;;2073231;28;20214;-60
2023/08/14 03:09:20;;;;;;;2.40;1.70;;;;;23.40;100421.00;;;;2067163;28;20218;-58
2023/08/14 03:10:22;;;;;;;5.23;2.00;;;;;23.50;100420.00;;;;2060557;28;20326;-59
2023/08/14 03:11:23;;;;;;;3.42;1.95;;;;;23.50;100429.00;;;;2065606;28;20673;-58
2023/08/14 03:12:23;;;;;;;3.77;2.03;;;;;23.40;100425.00;;;;2074811;28;20217;-59
2023/08/14 03:13:24;;;;;;;2.13;1.83;;;;;23.50;100425.00;;;;2075805;28;20220;-60
2023/08/14 03:14:24;;;;;;;3.20;1.90;;;;;22.90;100426.00;;;;2071340;28;20226;-61
2023/08/14 03:15:25;;;;;;;3.10;1.97;;;;;23.50;100432.00;;;;2072570;28;20475;-58
2023/08/14 03:16:25;;;;;;;2.20;1.50;;;;;23.40;100422.00;;;;2062859;28;20221;-57
2023/08/14 03:17:26;;;;;;;4.17;1.90;;;;;23.40;100429.00;;;;2076234;28;20304;-61
2023/08/14 03:18:26;;;;;;;2.90;1.80;;;;;23.40;100424.00;;;;2071129;28;20230;-60
2023/08/14 03:19:26;;;;;;;2.57;1.87;;;;;23.40;100423.00;;;;2073513;28;20212;-61
2023/08/14 03:20:27;;;;;;;2.37;1.73;;;;;23.40;100423.00;;;;2068671;28;20210;-61
2023/08/14 03:21:27;;;;;;;3.50;1.87;;;;;23.40;100416.00;;;;2064986;28;20308;-61
2023/08/14 03:22:27;;;;;;;2.20;1.87;;;;;23.40;100421.00;;;;2075662;28;20299;-59
2023/08/14 03:23:28;;;;;;;3.90;1.90;;;;;23.40;100430.00;;;;2067480;28;21709;-62
2023/08/14 03:24:28;;;;;;;4.17;1.83;;;;;23.40;100433.00;;;;2074885;28;20217;-63
2023/08/14 03:25:28;;;;;;;5.00;2.03;;;;;23.40;100423.00;;;;2073433;28;20220;-64
2023/08/14 03:26:29;;;;;;;4.00;2.23;;;;;23.40;100419.00;;;;2060648;28;20702;-63
2023/08/14 03:27:29;;;;;;;2.90;1.60;;;;;23.40;100428.00;;;;2067813;28;20648;-61
2023/08/14 03:28:30;;;;;;;2.37;1.50;;;;;23.40;100423.00;;;;2066603;28;20221;-58
2023/08/14 03:29:30;;;;;;;3.57;2.10;;;;;23.40;100425.00;;;;2068815;28;20210;-61
2023/08/14 03:30:30;;;;;;;2.57;1.80;;;;;23.40;100427.00;;;;2074183;28;20206;-60
2023/08/14 03:31:31;;;;;;;2.50;2.10;;;;;23.40;100426.00;;;;2064062;28;20300;-61
2023/08/14 03:32:32;;;;;;;3.38;1.95;;;;;23.40;100429.00;;;;2075470;28;20739;-58
2023/08/14 03:33:32;;;;;;;4.00;1.97;;;;;23.40;100432.00;;;;2073898;28;20198;-60
2023/08/14 03:34:32;;;;;;;3.60;2.07;;;;;23.40;100426.00;;;;2075651;28;20226;-61
2023/08/14 03:35:33;;;;;;;1.80;1.40;;;;;23.40;100420.00;;;;2067968;28;20201;-61
2023/08/14 03:36:33;;;;;;;2.50;1.70;;;;;23.40;100424.00;;;;2059471;28;20206;-61
2023/08/14 03:37:34;;;;;;;1.83;1.50;;;;;23.40;100418.00;;;;2074270;28;20210;-61
2023/08/14 03:38:34;;;;;;;6.30;2.30;;;;;23.40;100420.00;;;;2075987;28;20213;-59
2023/08/14 03:39:35;;;;;;;4.40;1.93;;;;;23.40;100426.00;;;;2076582;28;20205;-60
2023/08/14 03:40:35;;;;;;;3.50;2.20;;;;;23.40;100432.00;;;;2074450;28;20228;-60
2023/08/14 03:41:35;;;;;;;3.23;2.10;;;;;23.40;100425.00;;;;2065485;28;20205;-61
2023/08/14 03:42:36;;;;;;;2.03;1.73;;;;;23.40;100432.00;;;;2073077;28;20220;-61
2023/08/14 03:43:36;;;;;;;3.30;1.97;;;;;23.40;100427.00;;;;2069500;28;20214;-60
2023/08/14 03:44:36;;;;;;;2.07;1.60;;;;;23.40;100426.00;;;;2076236;28;20629;-59
2023/08/14 03:45:37;;;;;;;2.27;1.93;;;;;23.40;100421.00;;;;2062072;28;20210;-59
2023/08/14 03:46:37;;;;;;;3.10;1.90;;;;;23.40;100431.00;;;;2058291;28;20253;-60
2023/08/14 03:47:37;;;;;;;2.50;2.30;;;;;23.40;100436.00;;;;2073802;28;20756;-60
2023/08/14 03:48:38;;;;;;;2.67;1.60;;;;;23.40;100439.00;;;;2075620;28;20672;-60
2023/08/14 03:49:38;;;;;;;2.20;2.00;;;;;23.40;100432.00;;;;2075287;28;20570;-59
2023/08/14 03:50:38;;;;;;;2.90;1.60;;;;;23.40;100295.00;;;;2073659;28;20893;-61
2023/08/14 03:51:39;;;;;;;2.30;1.83;;;;;23.40;100429.00;;;;2058572;28;20704;-57
2023/08/14 03:52:40;;;;;;;2.07;1.87;;;;;23.40;100315.00;;;;2068024;28;20570;-60
2023/08/14 03:53:40;;;;;;;3.42;1.70;;;;;23.40;100426.00;;;;2068506;28;20210;-59
2023/08/14 03:54:41;;;;;;;3.00;1.80;;;;;23.40;100422.00;;;;2076924;28;20260;-61
2023/08/14 03:55:41;;;;;;;3.30;1.80;;;;;23.40;100422.00;;;;2072180;28;20225;-59
2023/08/14 03:56:41;;;;;;;2.23;1.67;;;;;23.40;100422.00;;;;2065870;28;20841;-57
2023/08/14 03:57:42;;;;;;;3.90;1.80;;;;;23.40;100420.00;;;;2076145;28;20208;-60
2023/08/14 03:58:42;;;;;;;2.07;1.87;;;;;23.40;100417.00;;;;2071259;28;20214;-60
2023/08/14 03:59:42;;;;;;;2.93;2.13;;;;;23.40;100426.00;;;;2072657;28;20296;-60
2023/08/14 04:00:43;;;;;;;3.00;1.90;;;;;23.40;100425.00;;;;2078301;28;20288;-61
2023/08/14 04:01:43;;;;;;;2.63;1.80;;;;;23.40;100425.00;;;;2063228;28;20708;-58
2023/08/14 04:02:44;;;;;;;2.40;1.93;;;;;23.40;100429.00;;;;2069851;28;20309;-60
2023/08/14 04:03:44;;;;;;;3.80;1.63;;;;;23.40;100425.00;;;;2072497;28;20229;-59
2023/08/14 04:04:44;;;;;;;2.17;1.63;;;;;23.40;100428.00;;;;2071997;28;20206;-61
2023/08/14 04:05:45;;;;;;;3.83;1.70;;;;;23.40;100431.00;;;;2077128;28;20387;-60
2023/08/14 04:06:47;;;;;;;3.27;1.90;;;;;23.40;100423.00;;;;2064539;28;20225;-61
2023/08/14 04:07:47;;;;;;;2.53;1.67;;;;;23.40;100433.00;;;;2077803;28;20244;-61
2023/08/14 04:08:47;;;;;;;4.53;1.63;;;;;23.40;100430.00;;;;2076895;28;20578;-58
2023/08/14 04:09:48;;;;;;;2.77;1.90;;;;;23.40;100437.00;;;;2075489;28;20217;-58
2023/08/14 04:10:57;;;;;;;2.93;1.80;;;;;23.40;100430.00;;;;2068252;28;20214;-61
2023/08/14 04:11:57;;;;;;;1.73;1.63;;;;;23.40;100434.00;;;;2058578;28;20214;-61
2023/08/14 04:12:57;;;;;;;2.10;1.77;;;;;23.40;100428.00;;;;2077096;28;20212;-61
2023/08/14 04:13:58;;;;;;;2.13;1.73;;;;;23.40;100429.00;;;;2076656;28;20210;-61
2023/08/14 04:15:15;;;;;;;2.83;1.97;;;;;23.40;100430.00;;;;2074946;28;20347;-57
2023/08/14 04:16:15;;;;;;;2.38;1.52;;;;;23.40;100391.00;;;;2073450;28;20664;-58
2023/08/14 04:17:15;;;;;;;1.97;1.77;;;;;23.40;100434.00;;;;2051891;28;20227;-60
2023/08/14 04:18:16;;;;;;;2.17;1.50;;;;;23.40;100428.00;;;;2064235;28;20223;-61
2023/08/14 04:19:17;;;;;;;4.20;1.70;;;;;23.40;100423.00;;;;2058840;28;20219;-61
2023/08/14 04:20:17;;;;;;;3.78;1.70;;;;;23.40;100423.00;;;;2056810;28;20227;-60
2023/08/14 04:21:18;;;;;;;3.33;1.70;;;;;23.30;100418.00;;;;2065613;28;20280;-58
2023/08/14 04:22:18;;;;;;;2.23;1.80;;;;;23.40;100420.00;;;;2060134;28;20217;-60
2023/08/14 04:23:18;;;;;;;4.83;1.80;;;;;23.40;100421.00;;;;2076729;28;20217;-60
2023/08/14 04:24:19;;;;;;;3.50;1.63;;;;;23.40;100408.00;;;;2071304;28;20211;-58
2023/08/14 04:25:20;;;;;;;2.00;1.80;;;;;23.30;100412.00;;;;2070080;28;20238;-60
2023/08/14 04:26:20;;;;;;;3.23;1.70;;;;;23.30;100410.00;;;;2057402;28;20900;-58
2023/08/14 04:27:20;;;;;;;2.67;1.77;;;;;23.40;100412.00;;;;2064432;28;20531;-61
2023/08/14 04:28:21;;;;;;;2.40;1.60;;;;;23.40;100414.00;;;;2078009;28;20252;-59
2023/08/14 04:29:21;;;;;;;1.90;1.60;;;;;23.40;100407.00;;;;2074716;28;20226;-59
2023/08/14 04:30:21;;;;;;;2.60;1.73;;;;;23.30;100401.00;;;;2073584;28;20271;-57
2023/08/14 04:31:22;;;;;;;2.40;1.67;;;;;23.30;100406.00;;;;2066948;28;20224;-60
2023/08/14 04:32:22;;;;;;;2.83;1.87;;;;;23.40;100401.00;;;;2071050;28;20207;-61
2023/08/14 04:33:22;;;;;;;5.40;1.90;;;;;23.40;100406.00;;;;2074113;28;20282;-61
2023/08/14 04:34:23;;;;;;;2.63;1.90;;;;;23.40;100402.00;;;;2072186;28;20304;-61
2023/08/14 04:35:23;;;;;;;2.40;1.70;;;;;23.30;100402.00;;;;2077672;28;20222;-60
2023/08/14 04:36:23;;;;;;;2.87;1.53;;;;;23.30;100399.00;;;;2059256;28;20218;-58
2023/08/14 04:37:23;;;;;;;2.17;1.53;;;;;23.40;100422.00;;;;2077331;28;20217;-60
2023/08/14 04:38:24;;;;;;;4.13;1.90;;;;;23.30;100420.00;;;;2071179;28;21105;-60
2023/08/14 04:39:24;;;;;;;2.17;1.60;;;;;23.30;100410.00;;;;2076268;28;21154;-61
2023/08/14 04:40:25;;;;;;;2.67;1.80;;;;;23.30;100416.00;;;;2078379;28;20561;-62
2023/08/14 04:41:25;;;;;;;2.60;1.60;;;;;23.40;100417.00;;;;2061991;28;20222;-61
2023/08/14 04:42:26;;;;;;;2.70;1.70;;;;;23.40;100410.00;;;;2069228;28;20218;-59
2023/08/14 04:43:31;;;;;;;3.30;2.10;;;;;23.30;100410.00;;;;2062308;28;20958;-61
2023/08/14 04:44:31;;;;;;;1.50;1.30;;;;;23.30;100412.00;;;;2076235;28;20217;-61
2023/08/14 04:45:32;;;;;;;1.60;1.33;;;;;23.30;100415.00;;;;2076000;28;20721;-61
2023/08/14 04:46:36;;;;;;;2.27;1.77;;;;;23.30;100419.00;;;;2064339;28;20218;-58
2023/08/14 04:47:36;;;;;;;2.72;1.80;;;;;23.30;100417.00;;;;2072133;28;20209;-60
2023/08/14 04:48:37;;;;;;;3.23;1.80;;;;;23.30;100417.00;;;;2078357;28;20590;-61
2023/08/14 04:49:38;;;;;;;3.25;1.75;;;;;23.30;100420.00;;;;2076823;28;20721;-61
2023/08/14 04:50:38;;;;;;;2.70;2.17;;;;;23.30;100434.00;;;;2069926;28;20221;-57
2023/08/14 04:51:38;;;;;;;2.20;1.77;;;;;23.30;100418.00;;;;2066165;28;20229;-59
2023/08/14 04:52:39;;;;;;;3.63;1.90;;;;;23.30;100409.00;;;;2072684;28;20300;-60
2023/08/14 04:53:39;;;;;;;2.57;2.10;;;;;23.30;100415.00;;;;2077042;28;20259;-61
2023/08/14 04:54:39;;;;;;;3.43;1.90;;;;;23.30;100425.00;;;;2076039;28;21188;-60
2023/08/14 04:55:40;;;;;;;2.67;1.70;;;;;23.30;100415.00;;;;2074683;28;20710;-59
2023/08/14 04:56:40;;;;;;;4.27;1.90;;;;;23.30;100395.00;;;;2062280;28;20694;-60
2023/08/14 04:57:40;;;;;;;2.40;1.53;;;;;23.40;100409.00;;;;2077335;28;20780;-58
2023/08/14 04:58:41;;;;;;;4.00;2.00;;;;;23.40;100417.00;;;;2062771;28;20297;-60
2023/08/14 04:59:41;;;;;;;4.80;2.00;;;;;23.30;100408.00;;;;2068703;28;20301;-60
2023/08/14 05:00:42;;;;;;;2.73;2.00;;;;;23.40;100412.00;;;;2074558;28;20220;-59
2023/08/14 05:01:42;;;;;;;3.20;1.63;;;;;23.30;100411.00;;;;2068215;28;20248;-61
2023/08/14 05:02:42;;;;;;;3.00;1.83;;;;;23.30;100412.00;;;;2076494;28;20201;-61
2023/08/14 05:03:43;;;;;;;2.17;1.67;;;;;23.30;100409.00;;;;2070282;28;20302;-61